createdAt,value
2023-10-29T00:01:07.160Z,11.21
2023-10-29T00:03:33.668Z,11.37
2023-10-29T00:06:00.239Z,11.22
2023-10-29T00:08:26.821Z,11.27
2023-10-29T00:10:53.542Z,11.19
2023-10-29T00:13:20.076Z,11.37
2023-10-29T00:15:46.575Z,11.45
2023-10-29T00:18:13.174Z,11.28
2023-10-29T00:20:40.361Z,11.22
2023-10-29T00:23:07.684Z,11.41
2023-10-29T00:25:34.130Z,11.52
2023-10-29T00:28:00.636Z,11.51
2023-10-29T00:30:27.096Z,11.63
2023-10-29T00:32:53.677Z,11.41
2023-10-29T00:35:20.524Z,11.48
2023-10-29T00:37:47.054Z,11.50
2023-10-29T00:40:13.645Z,11.67
2023-10-29T00:42:40.218Z,11.61
2023-10-29T00:45:07.126Z,11.61
2023-10-29T00:47:33.993Z,11.64
2023-10-29T00:50:00.640Z,11.63
2023-10-29T00:52:27.137Z,11.55
2023-10-29T00:54:53.645Z,11.58
2023-10-29T00:57:20.764Z,11.56
2023-10-29T00:59:47.510Z,11.52
2023-10-29T01:02:14.432Z,11.76
2023-10-29T01:04:41.606Z,11.64
2023-10-29T01:07:08.152Z,11.57
2023-10-29T01:09:35.311Z,11.68
2023-10-29T01:12:01.746Z,11.78
2023-10-29T01:14:28.311Z,11.78
2023-10-29T01:16:55.143Z,11.77
2023-10-29T01:19:21.610Z,11.75
2023-10-29T01:21:48.194Z,11.71
2023-10-29T01:24:14.647Z,11.59
2023-10-29T01:26:41.101Z,11.68
2023-10-29T01:29:07.742Z,11.79
2023-10-29T01:31:34.651Z,11.68
2023-10-29T01:34:01.159Z,11.58
2023-10-29T01:36:27.646Z,11.62
2023-10-29T01:38:54.190Z,11.71
2023-10-29T01:41:20.633Z,11.74
2023-10-29T01:43:47.292Z,11.56
2023-10-29T01:46:13.760Z,11.69
2023-10-29T01:48:40.479Z,11.74
2023-10-29T01:51:08.239Z,11.75
2023-10-29T01:53:34.767Z,11.68
2023-10-29T01:56:01.302Z,11.79
2023-10-29T01:58:28.427Z,11.96
2023-10-29T02:00:54.930Z,11.94
2023-10-29T02:03:23.074Z,11.96
2023-10-29T02:05:49.803Z,12.01
2023-10-29T02:08:16.540Z,12.07
2023-10-29T02:10:42.991Z,12.16
2023-10-29T02:13:10.363Z,12.20
2023-10-29T02:15:37.094Z,12.24
2023-10-29T02:18:04.122Z,12.32
2023-10-29T02:20:30.732Z,12.17
2023-10-29T02:22:57.183Z,12.07
2023-10-29T02:25:24.019Z,11.97
2023-10-29T02:27:50.439Z,11.86
2023-10-29T02:30:18.037Z,11.96
2023-10-29T02:32:44.683Z,11.78
2023-10-29T02:35:11.308Z,11.76
2023-10-29T02:37:37.757Z,11.71
2023-10-29T02:40:04.931Z,11.74
2023-10-29T02:42:31.342Z,11.69
2023-10-29T02:44:57.814Z,11.68
2023-10-29T02:47:24.357Z,11.57
2023-10-29T02:49:50.810Z,11.71
2023-10-29T02:52:17.259Z,11.69
2023-10-29T02:54:43.861Z,11.59
2023-10-29T02:57:11.270Z,11.67
2023-10-29T02:59:38.074Z,11.69
2023-10-29T03:02:04.680Z,11.70
2023-10-29T03:04:31.281Z,11.70
2023-10-29T03:06:57.914Z,11.72
2023-10-29T03:09:24.506Z,11.65
2023-10-29T03:11:51.143Z,11.82
2023-10-29T03:14:17.717Z,11.87
2023-10-29T03:16:44.249Z,11.80
2023-10-29T03:19:10.741Z,11.92
2023-10-29T03:21:37.231Z,11.93
2023-10-29T03:24:04.255Z,11.97
2023-10-29T03:26:30.722Z,12.11
2023-10-29T03:28:57.169Z,12.15
2023-10-29T03:31:23.802Z,12.11
2023-10-29T03:33:50.385Z,12.23
2023-10-29T03:36:17.400Z,12.20
2023-10-29T03:38:43.881Z,12.12
2023-10-29T03:41:23.312Z,12.15
2023-10-29T03:43:50.647Z,12.23
2023-10-29T03:46:17.292Z,12.25
2023-10-29T03:48:43.908Z,12.15
2023-10-29T03:51:10.364Z,12.25
2023-10-29T03:53:37.714Z,12.27
2023-10-29T03:56:04.553Z,12.20
2023-10-29T03:58:31.792Z,12.17
2023-10-29T04:00:59.347Z,12.21
2023-10-29T04:03:25.865Z,12.31
2023-10-29T04:05:52.824Z,12.33
2023-10-29T04:08:19.297Z,12.40
2023-10-29T04:10:45.717Z,12.46
2023-10-29T04:13:13.244Z,12.40
2023-10-29T04:15:39.686Z,12.43
2023-10-29T04:18:06.264Z,12.40
2023-10-29T04:20:32.780Z,12.49
2023-10-29T04:22:59.255Z,12.46
2023-10-29T04:25:25.937Z,12.58
2023-10-29T04:27:52.440Z,12.43
2023-10-29T04:30:19.313Z,12.52
2023-10-29T04:32:45.887Z,12.51
2023-10-29T04:35:12.443Z,12.51
2023-10-29T04:37:39.122Z,12.58
2023-10-29T04:40:06.407Z,12.53
2023-10-29T04:42:32.867Z,12.53
2023-10-29T04:44:59.374Z,12.68
2023-10-29T04:47:25.863Z,12.63
2023-10-29T04:49:52.345Z,12.53
2023-10-29T04:52:18.760Z,12.51
2023-10-29T04:54:45.363Z,12.61
2023-10-29T04:57:11.915Z,12.56
2023-10-29T04:59:38.413Z,12.57
2023-10-29T05:02:05.170Z,12.57
2023-10-29T05:04:31.890Z,12.68
2023-10-29T05:06:58.343Z,12.67
2023-10-29T05:09:25.002Z,12.77
2023-10-29T05:11:51.542Z,12.73
2023-10-29T05:14:18.021Z,12.86
2023-10-29T05:16:44.695Z,12.84
2023-10-29T05:19:11.232Z,12.97
2023-10-29T05:21:37.709Z,12.94
2023-10-29T05:24:04.501Z,12.99
2023-10-29T05:26:30.993Z,12.98
2023-10-29T05:28:57.520Z,13.06
2023-10-29T05:31:24.055Z,13.16
2023-10-29T05:33:50.557Z,12.97
2023-10-29T05:36:17.100Z,13.01
2023-10-29T05:38:43.628Z,13.00
2023-10-29T05:41:10.125Z,12.94
2023-10-29T05:43:36.816Z,12.89
2023-10-29T05:46:04.234Z,12.98
2023-10-29T05:48:31.044Z,12.91
2023-10-29T05:50:59.996Z,12.82
2023-10-29T05:53:26.472Z,12.89
2023-10-29T05:55:54.378Z,12.86
2023-10-29T05:58:22.342Z,12.78
2023-10-29T06:00:48.996Z,12.71
2023-10-29T06:03:20.365Z,12.70
2023-10-29T06:05:47.112Z,12.69
2023-10-29T06:08:13.791Z,12.66
2023-10-29T06:10:40.224Z,12.73
2023-10-29T06:13:06.689Z,12.87
2023-10-29T06:15:33.753Z,12.79
2023-10-29T06:18:00.932Z,12.66
2023-10-29T06:20:27.574Z,12.52
2023-10-29T06:22:54.107Z,12.56
2023-10-29T06:25:20.586Z,12.75
2023-10-29T06:27:47.086Z,12.71
2023-10-29T06:30:13.695Z,12.69
2023-10-29T06:32:40.678Z,12.64
2023-10-29T06:35:07.473Z,12.80
2023-10-29T06:37:33.952Z,12.60
2023-10-29T06:40:00.574Z,12.68
2023-10-29T06:42:27.066Z,12.58
2023-10-29T06:44:53.577Z,12.53
2023-10-29T06:47:20.403Z,12.48
2023-10-29T06:49:46.864Z,12.44
2023-10-29T06:52:13.327Z,12.42
2023-10-29T06:54:39.751Z,12.42
2023-10-29T06:57:06.516Z,12.55
2023-10-29T06:59:33.068Z,12.64
2023-10-29T07:01:59.542Z,12.42
2023-10-29T07:04:26.994Z,12.47
2023-10-29T07:06:53.841Z,12.49
2023-10-29T07:09:20.391Z,12.49
2023-10-29T07:11:47.050Z,12.39
2023-10-29T07:14:13.592Z,12.45
2023-10-29T07:16:43.091Z,12.37
2023-10-29T07:19:09.580Z,12.50
2023-10-29T07:21:36.031Z,12.39
2023-10-29T07:24:02.511Z,12.43
2023-10-29T07:26:28.974Z,12.44
2023-10-29T07:28:55.444Z,12.51
2023-10-29T07:31:22.161Z,12.55
2023-10-29T07:33:48.700Z,12.43
2023-10-29T07:36:15.240Z,12.44
2023-10-29T07:38:44.422Z,12.49
2023-10-29T07:41:10.930Z,12.50
2023-10-29T07:43:37.454Z,12.45
2023-10-29T07:46:04.817Z,12.51
2023-10-29T07:48:31.514Z,12.62
2023-10-29T07:50:58.015Z,12.59
2023-10-29T07:53:25.145Z,12.47
2023-10-29T07:55:51.807Z,12.59
2023-10-29T07:58:18.274Z,12.58
2023-10-29T08:00:44.812Z,12.66
2023-10-29T08:03:11.449Z,12.75
2023-10-29T08:05:38.156Z,12.83
2023-10-29T08:08:04.918Z,12.96
2023-10-29T08:10:31.349Z,12.90
2023-10-29T08:12:57.784Z,13.03
2023-10-29T08:15:24.325Z,13.29
2023-10-29T08:17:50.854Z,13.39
2023-10-29T08:20:17.310Z,13.16
2023-10-29T08:22:45.923Z,13.25
2023-10-29T08:25:13.068Z,13.26
2023-10-29T08:27:39.547Z,13.23
2023-10-29T08:30:07.588Z,13.09
2023-10-29T08:32:34.308Z,13.06
2023-10-29T08:35:00.886Z,12.94
2023-10-29T08:37:27.316Z,12.91
2023-10-29T08:39:57.924Z,12.85
2023-10-29T08:42:24.325Z,12.81
2023-10-29T08:44:56.375Z,12.99
2023-10-29T08:47:22.870Z,13.20
2023-10-29T08:49:49.381Z,13.04
2023-10-29T08:52:15.934Z,12.99
2023-10-29T08:54:42.386Z,13.01
2023-10-29T08:57:08.827Z,13.01
2023-10-29T08:59:35.367Z,13.00
2023-10-29T09:02:01.842Z,13.05
2023-10-29T09:04:28.434Z,13.03
2023-10-29T09:06:55.190Z,13.04
2023-10-29T09:09:21.694Z,12.90
2023-10-29T09:11:52.471Z,13.01
2023-10-29T09:14:19.297Z,12.91
2023-10-29T09:16:45.763Z,12.87
2023-10-29T09:19:12.214Z,12.78
2023-10-29T09:21:38.646Z,12.72
2023-10-29T09:24:05.488Z,12.68
2023-10-29T09:26:32.520Z,12.84
2023-10-29T09:28:59.040Z,12.80
2023-10-29T09:31:25.597Z,12.83
2023-10-29T09:33:52.093Z,12.96
2023-10-29T09:36:18.603Z,12.97
2023-10-29T09:38:45.065Z,12.87
2023-10-29T09:41:11.870Z,12.67
2023-10-29T09:43:41.769Z,12.70
2023-10-29T09:46:14.702Z,12.76
2023-10-29T09:48:43.996Z,12.77
2023-10-29T09:51:11.008Z,12.70
2023-10-29T09:53:38.577Z,12.72
2023-10-29T09:56:11.817Z,12.89
2023-10-29T09:58:38.613Z,12.65
2023-10-29T10:01:05.939Z,12.60
2023-10-29T10:03:32.764Z,12.67
2023-10-29T10:06:00.025Z,12.77
2023-10-29T10:08:30.840Z,12.69
2023-10-29T10:10:58.397Z,12.71
2023-10-29T10:13:38.591Z,12.71
2023-10-29T10:16:09.326Z,12.73
2023-10-29T10:18:55.176Z,12.86
2023-10-29T10:21:23.544Z,12.89
2023-10-29T10:23:51.105Z,12.80
2023-10-29T10:26:27.242Z,12.92
2023-10-29T10:28:55.348Z,12.85
2023-10-29T10:31:22.267Z,12.86
2023-10-29T10:33:49.438Z,12.83
2023-10-29T10:36:30.761Z,12.91
2023-10-29T10:38:57.242Z,12.83
2023-10-29T10:41:23.718Z,12.87
2023-10-29T10:44:08.254Z,12.86
2023-10-29T10:46:36.184Z,13.01
2023-10-29T10:49:03.875Z,12.96
2023-10-29T10:51:31.723Z,12.94
2023-10-29T10:54:01.628Z,12.89
2023-10-29T10:56:31.550Z,12.98
2023-10-29T10:59:00.331Z,12.86
2023-10-29T11:01:27.831Z,13.16
2023-10-29T11:03:55.975Z,13.01
2023-10-29T11:06:22.559Z,12.86
2023-10-29T11:08:49.738Z,12.98
2023-10-29T11:11:17.904Z,12.81
2023-10-29T11:13:44.410Z,12.77
2023-10-29T11:16:24.376Z,12.85
2023-10-29T11:18:50.878Z,12.88
2023-10-29T11:21:33.540Z,12.75
2023-10-29T11:24:19.477Z,12.83
2023-10-29T11:26:46.002Z,12.87
2023-10-29T11:29:50.554Z,12.86
2023-10-29T11:32:27.104Z,12.82
2023-10-29T11:35:16.305Z,13.05
2023-10-29T11:37:43.563Z,12.90
2023-10-29T11:40:28.965Z,12.85
2023-10-29T11:43:16.305Z,12.88
2023-10-29T11:45:58.829Z,12.98
2023-10-29T11:48:26.028Z,12.99
2023-10-29T11:51:05.070Z,12.98
2023-10-29T11:53:31.586Z,12.81
2023-10-29T11:56:00.593Z,12.90
2023-10-29T11:58:27.746Z,12.92
2023-10-29T12:00:54.238Z,12.98
2023-10-29T12:03:21.940Z,13.02
2023-10-29T12:05:55.678Z,13.05
2023-10-29T12:08:27.034Z,13.14
2023-10-29T12:10:57.351Z,13.10
2023-10-29T12:13:24.105Z,13.06
2023-10-29T12:15:58.530Z,12.93
2023-10-29T12:18:28.088Z,13.02
2023-10-29T12:21:06.426Z,13.08
2023-10-29T12:23:33.496Z,13.11
2023-10-29T12:26:02.374Z,13.22
2023-10-29T12:28:29.259Z,13.13
2023-10-29T12:30:55.726Z,13.14
2023-10-29T12:33:24.357Z,12.92
2023-10-29T12:35:52.150Z,12.99
2023-10-29T12:38:19.943Z,13.17
2023-10-29T12:41:04.699Z,13.00
2023-10-29T12:43:33.994Z,13.01
2023-10-29T12:46:01.417Z,12.85
2023-10-29T12:48:28.664Z,12.86
2023-10-29T12:50:55.280Z,12.78
2023-10-29T12:53:32.701Z,12.87
2023-10-29T12:56:00.945Z,12.87
2023-10-29T12:58:28.770Z,12.86
2023-10-29T13:00:57.189Z,12.76
2023-10-29T13:03:25.933Z,12.74
2023-10-29T13:05:54.053Z,12.78
2023-10-29T13:08:21.974Z,12.77
2023-10-29T13:10:48.749Z,12.86
2023-10-29T13:13:15.332Z,13.38
2023-10-29T13:15:42.952Z,13.40
2023-10-29T13:18:10.148Z,13.35
2023-10-29T13:20:36.846Z,13.38
2023-10-29T13:23:03.436Z,12.98
2023-10-29T13:25:30.148Z,13.23
2023-10-29T13:27:56.666Z,13.13
2023-10-29T13:30:23.158Z,13.21
2023-10-29T13:32:49.828Z,13.28
2023-10-29T13:35:16.410Z,13.37
2023-10-29T13:37:43.262Z,13.31
2023-10-29T13:40:10.153Z,13.35
2023-10-29T13:42:36.651Z,13.23
2023-10-29T13:45:03.395Z,13.26
2023-10-29T13:47:29.922Z,13.22
2023-10-29T13:49:56.481Z,13.06
2023-10-29T13:52:22.974Z,13.17
2023-10-29T13:54:49.586Z,12.94
2023-10-29T13:57:16.193Z,13.05
2023-10-29T13:59:42.771Z,12.99
2023-10-29T14:02:09.189Z,13.01
2023-10-29T14:04:35.658Z,12.86
2023-10-29T14:07:02.110Z,12.93
2023-10-29T14:09:28.666Z,13.16
2023-10-29T14:11:55.217Z,13.64
2023-10-29T14:14:21.940Z,13.82
2023-10-29T14:16:48.486Z,13.73
2023-10-29T14:19:15.154Z,13.83
2023-10-29T14:21:41.684Z,14.27
2023-10-29T14:24:09.402Z,14.34
2023-10-29T14:26:36.411Z,13.83
2023-10-29T14:29:03.148Z,13.71
2023-10-29T14:31:29.966Z,13.44
2023-10-29T14:33:56.546Z,13.17
2023-10-29T14:36:23.089Z,13.13
2023-10-29T14:38:49.941Z,12.98
2023-10-29T14:41:17.407Z,13.01
2023-10-29T14:43:44.381Z,12.94
2023-10-29T14:46:11.051Z,12.93
2023-10-29T14:48:37.557Z,12.93
2023-10-29T14:51:05.858Z,12.75
2023-10-29T14:53:32.754Z,12.78
2023-10-29T14:55:59.773Z,12.83
2023-10-29T14:58:26.340Z,12.76
2023-10-29T15:00:52.902Z,12.74
2023-10-29T15:03:19.480Z,12.64
2023-10-29T15:05:46.144Z,12.65
2023-10-29T15:08:12.702Z,12.65
2023-10-29T15:10:39.164Z,12.77
2023-10-29T15:13:05.667Z,12.64
2023-10-29T15:15:32.222Z,12.56
2023-10-29T15:17:59.138Z,12.61
2023-10-29T15:20:26.462Z,12.60
2023-10-29T15:22:53.366Z,12.59
2023-10-29T15:25:20.076Z,12.44
2023-10-29T15:27:46.768Z,12.52
2023-10-29T15:30:13.556Z,12.45
2023-10-29T15:32:40.259Z,12.53
2023-10-29T15:35:07.089Z,12.44
2023-10-29T15:37:33.658Z,12.50
2023-10-29T15:40:00.248Z,12.58
2023-10-29T15:42:27.623Z,12.68
2023-10-29T15:44:54.391Z,12.47
2023-10-29T15:47:20.966Z,12.39
2023-10-29T15:49:47.574Z,12.33
2023-10-29T15:52:14.121Z,12.29
2023-10-29T15:54:40.687Z,12.34
2023-10-29T15:57:07.212Z,12.38
2023-10-29T15:59:33.755Z,12.36
2023-10-29T16:02:00.236Z,12.31
2023-10-29T16:04:26.882Z,12.33
2023-10-29T16:06:53.406Z,12.37
2023-10-29T16:09:20.093Z,12.24
2023-10-29T16:11:46.898Z,12.32
2023-10-29T16:14:13.446Z,12.05
2023-10-29T16:16:40.447Z,12.19
2023-10-29T16:19:07.041Z,12.16
2023-10-29T16:21:33.555Z,12.26
2023-10-29T16:24:00.062Z,12.08
2023-10-29T16:26:26.558Z,12.08
2023-10-29T16:28:53.505Z,11.99
2023-10-29T16:31:20.373Z,11.99
2023-10-29T16:33:47.015Z,12.09
2023-10-29T16:36:13.585Z,11.96
2023-10-29T16:38:40.202Z,11.98
2023-10-29T16:41:06.686Z,11.84
2023-10-29T16:43:33.231Z,11.83
2023-10-29T16:46:00.338Z,11.81
2023-10-29T16:48:26.973Z,11.78
2023-10-29T16:51:02.732Z,11.69
2023-10-29T16:53:30.424Z,11.66
2023-10-29T16:56:06.005Z,11.91
2023-10-29T16:58:33.041Z,11.76
2023-10-29T17:01:00.634Z,11.68
2023-10-29T17:03:30.237Z,11.79
2023-10-29T17:05:56.979Z,11.80
2023-10-29T17:08:24.076Z,11.85
2023-10-29T17:10:50.942Z,11.82
2023-10-29T17:13:17.468Z,11.68
2023-10-29T17:15:44.014Z,11.80
2023-10-29T17:18:10.676Z,11.62
2023-10-29T17:20:37.352Z,11.52
2023-10-29T17:23:03.919Z,11.58
2023-10-29T17:25:34.474Z,11.50
2023-10-29T17:28:00.999Z,11.55
2023-10-29T17:30:27.475Z,11.60
2023-10-29T17:32:54.056Z,11.42
2023-10-29T17:35:20.644Z,11.44
2023-10-29T17:37:47.132Z,11.51
2023-10-29T17:40:13.824Z,11.40
2023-10-29T17:42:40.275Z,11.56
2023-10-29T17:45:07.568Z,11.41
2023-10-29T17:47:34.037Z,11.49
2023-10-29T17:50:01.003Z,11.23
2023-10-29T17:52:27.526Z,11.19
2023-10-29T17:54:54.159Z,11.16
2023-10-29T17:57:20.661Z,11.18
2023-10-29T17:59:47.263Z,11.26
2023-10-29T18:02:13.761Z,11.39
2023-10-29T18:04:40.254Z,11.22
2023-10-29T18:07:06.984Z,11.21
2023-10-29T18:09:33.761Z,11.36
2023-10-29T18:12:00.299Z,11.29
2023-10-29T18:14:26.878Z,11.40
2023-10-29T18:16:54.117Z,11.18
2023-10-29T18:19:20.557Z,11.33
2023-10-29T18:21:47.222Z,11.26
2023-10-29T18:24:13.717Z,11.29
2023-10-29T18:26:40.312Z,11.15
2023-10-29T18:29:10.119Z,11.36
2023-10-29T18:31:37.145Z,11.12
2023-10-29T18:34:04.552Z,11.16
2023-10-29T18:36:31.302Z,11.32
2023-10-29T18:38:57.985Z,11.12
2023-10-29T18:41:24.518Z,11.19
2023-10-29T18:43:51.109Z,11.23
2023-10-29T18:46:17.648Z,11.23
2023-10-29T18:48:44.928Z,11.35
2023-10-29T18:51:11.526Z,11.29
2023-10-29T18:53:38.045Z,11.17
2023-10-29T18:56:06.128Z,11.24
2023-10-29T18:58:32.636Z,11.38
2023-10-29T19:01:09.092Z,11.40
2023-10-29T19:03:37.262Z,11.32
2023-10-29T19:06:11.758Z,11.26
2023-10-29T19:08:38.391Z,11.32
2023-10-29T19:11:05.546Z,11.18
2023-10-29T19:13:33.141Z,11.17
2023-10-29T19:16:01.297Z,11.41
2023-10-29T19:18:27.985Z,11.02
2023-10-29T19:20:54.526Z,11.17
2023-10-29T19:23:21.096Z,11.15
2023-10-29T19:25:47.632Z,11.22
2023-10-29T19:28:14.075Z,11.19
2023-10-29T19:30:59.437Z,11.00
2023-10-29T19:33:31.050Z,10.91
2023-10-29T19:35:57.584Z,11.08
2023-10-29T19:38:24.020Z,10.95
2023-10-29T19:40:57.632Z,10.86
2023-10-29T19:43:24.218Z,10.93
2023-10-29T19:45:58.146Z,10.96
2023-10-29T19:48:27.416Z,10.93
2023-10-29T19:51:01.362Z,10.99
2023-10-29T19:53:30.654Z,10.98
2023-10-29T19:55:57.693Z,11.03
2023-10-29T19:58:25.271Z,11.23
2023-10-29T20:00:52.462Z,11.27
2023-10-29T20:03:19.115Z,11.20
2023-10-29T20:05:45.999Z,11.04
2023-10-29T20:08:12.546Z,10.95
2023-10-29T20:10:40.076Z,10.87
2023-10-29T20:13:06.961Z,10.88
2023-10-29T20:15:35.276Z,10.83
2023-10-29T20:18:02.797Z,10.54
2023-10-29T20:20:30.055Z,10.63
2023-10-29T20:22:56.747Z,10.61
2023-10-29T20:25:23.464Z,10.73
2023-10-29T20:27:50.489Z,10.65
2023-10-29T20:30:16.956Z,10.61
2023-10-29T20:32:43.580Z,10.72
2023-10-29T20:35:10.059Z,10.58
2023-10-29T20:37:36.550Z,10.40
2023-10-29T20:40:03.420Z,10.52
2023-10-29T20:42:29.895Z,10.47
2023-10-29T20:44:56.402Z,10.41
2023-10-29T20:47:22.906Z,10.42
2023-10-29T20:49:49.586Z,10.38
2023-10-29T20:52:16.231Z,10.44
2023-10-29T20:54:42.855Z,10.49
2023-10-29T20:57:09.414Z,10.64
2023-10-29T20:59:38.047Z,10.54
2023-10-29T21:02:04.670Z,10.36
2023-10-29T21:04:31.196Z,10.29
2023-10-29T21:06:57.783Z,10.33
2023-10-29T21:09:24.377Z,10.11
2023-10-29T21:11:51.569Z,10.18
2023-10-29T21:14:18.983Z,10.23
2023-10-29T21:16:45.542Z,10.36
2023-10-29T21:19:12.678Z,10.33
2023-10-29T21:21:39.320Z,10.27
2023-10-29T21:24:07.001Z,10.19
2023-10-29T21:26:33.897Z,10.36
2023-10-29T21:29:01.226Z,10.47
2023-10-29T21:31:27.761Z,10.64
2023-10-29T21:33:56.703Z,10.59
2023-10-29T21:36:23.165Z,10.76
2023-10-29T21:38:49.775Z,10.83
2023-10-29T21:53:42.659Z,10.92
2023-10-29T21:56:13.861Z,10.93
2023-10-29T21:58:40.488Z,11.06
2023-10-29T22:01:11.418Z,10.89
2023-10-29T22:03:37.974Z,11.05
2023-10-29T22:06:06.213Z,11.08
2023-10-29T22:08:33.509Z,11.00
2023-10-29T22:11:03.735Z,11.01
2023-10-29T22:13:31.779Z,11.06
2023-10-29T22:16:12.199Z,11.04
2023-10-29T22:18:39.564Z,11.03
2023-10-29T22:21:10.937Z,10.97
2023-10-29T22:23:38.973Z,11.04
2023-10-29T22:26:06.580Z,11.05
2023-10-29T22:28:33.173Z,11.07
2023-10-29T22:31:00.999Z,10.98
2023-10-29T22:33:28.982Z,11.01
2023-10-29T22:36:07.941Z,10.98
2023-10-29T22:38:34.858Z,11.06
2023-10-29T22:41:09.651Z,11.00
2023-10-29T22:43:36.500Z,11.10
2023-10-29T22:46:03.774Z,10.86
2023-10-29T22:48:30.516Z,10.96
2023-10-29T22:50:57.591Z,10.87
2023-10-29T22:53:24.115Z,11.02
2023-10-29T22:55:50.635Z,10.97
2023-10-29T22:58:17.607Z,10.86
2023-10-29T23:00:44.234Z,10.79
2023-10-29T23:03:10.846Z,10.96
2023-10-29T23:05:37.392Z,10.92
2023-10-29T23:08:04.314Z,11.00
2023-10-29T23:10:31.887Z,10.96
2023-10-29T23:12:58.862Z,10.87
2023-10-29T23:15:25.453Z,10.93
2023-10-29T23:17:52.005Z,10.73
2023-10-29T23:20:18.556Z,10.73
2023-10-29T23:22:45.135Z,10.78
2023-10-29T23:25:11.781Z,10.82
2023-10-29T23:27:39.703Z,10.94
2023-10-29T23:30:06.877Z,10.79
2023-10-29T23:32:33.522Z,10.87
2023-10-29T23:35:00.040Z,10.76
2023-10-29T23:37:26.519Z,10.59
2023-10-29T23:39:52.998Z,10.69
2023-10-29T23:42:19.625Z,10.59
2023-10-29T23:44:46.104Z,10.56
2023-10-29T23:47:12.642Z,10.47
2023-10-29T23:49:39.334Z,10.49
2023-10-29T23:52:05.996Z,10.45
2023-10-29T23:54:32.581Z,10.35
2023-10-29T23:56:59.206Z,10.39
2023-10-29T23:59:25.709Z,10.40
